Bei Facebook empfehlenBei Twitter postenGoogle plusPinterest

Das Wetter im Erzgebirge am 30.03.2017

Wetter und Klima am 30.03.2017 Holzhau im Erzgebirge (630m ü.NN)
Letzte gemessene Temperatur und Uhrzeit der Messung23:45:00 Uhr4.90 °C
Temperatur (Maximum / Höchstwert) und Uhrzeit der Messung14:15:00 Uhr16.90 °C
Temperatur (Minimum / Tiefstwert) und Uhrzeit der Messung23:45:004.90 °C
Errechneter Absolutwert der Temperaturschwankungen zwischen Tmin und Tmax des Tages12.00 K
Errechnete Tagesmitteltemperatur10.59479 °C
Gesamt - Niederschlag des Tages (in flüssiger Form)0.00 Liter / m²
Luftdruck (Maximum / Höchstwert) und Zeitpunkt der Messung11:30:00 Uhr1022.90 hPa
Luftdruck (Minimum / Tiefstwert) und Zeitpunkt der Messung00:00:00 Uhr1020.80 hPa
Errechneter Absolutwert der Luftdruckschwankungen des Tages2.10 hPa
Höchste gemessene Windgeschwindigkeit und Uhrzeit der Messung12:45:00 Uhr16.56 km/h
Errechnete Windhäufigkeit in Relation zu den Messwerten des Tages28.12500 %
Niedrigste Windkühle (Windchill) und Zeitpunkt der Messung23:15:00 Uhr2.80 °C
Taupunkt (Maximum / Höchstwert) und Uhrzeit der Messung12:15:00 Uhr8.30 °C
Taupunkt (Minimum / Tiefstwert) und Uhrzeit der Messung23:45:003.20 °C
Anzahl der automatisch eingelesenen Messwerte 96

Detaillierte Wetter- und Klima- Messwerte für den 30.03.2017 in Holzhau im Erzgebirge (630m ü.NN)
ZeitTemperaturLuftdruckRel. LuftfeuchteWindWindrichtungWindchillTaupunktNiederschlag l/m²
23:45:004.90 °C1021.30 hPa89.00 %4.32 km/hOSO4.90 °C3.20 °C 
23:30:005.00 °C1021.30 hPa89.00 %3.30 °C 
23:15:005.00 °C1021.30 hPa88.00 %9.36 km/hSO2.80 °C3.20 °C 
23:00:005.30 °C1021.40 hPa88.00 %2.16 km/hSO5.30 °C3.50 °C 
22:45:005.40 °C1021.40 hPa89.00 %3.70 °C 
22:30:005.30 °C1021.70 hPa88.00 %4.32 km/hOSO5.30 °C3.50 °C 
22:15:005.50 °C1021.70 hPa86.00 %3.30 °C 
22:00:005.90 °C1021.80 hPa86.00 %3.70 °C 
21:45:006.30 °C1022.00 hPa85.00 %4.00 °C 
21:30:006.80 °C1021.90 hPa85.00 %4.50 °C 
21:15:007.10 °C1022.00 hPa85.00 %2.88 km/hSO7.10 °C4.80 °C 
21:00:007.10 °C1021.90 hPa84.00 %4.60 °C 
20:45:007.60 °C1021.80 hPa83.00 %4.90 °C 
20:30:007.80 °C1022.00 hPa81.00 %4.70 °C 
20:15:007.90 °C1021.70 hPa78.00 %4.30 °C 
20:00:008.70 °C1021.60 hPa76.00 %4.70 °C 
19:45:009.80 °C1021.60 hPa73.00 %5.20 °C 
19:30:0011.10 °C1021.60 hPa70.00 %5.80 °C 
19:15:0012.10 °C1021.30 hPa68.00 %6.40 °C 
19:00:0013.10 °C1021.40 hPa65.00 %6.70 °C 
18:45:0014.20 °C1021.30 hPa63.00 %1.08 km/hSSW14.20 °C7.30 °C 
18:30:0014.80 °C1021.40 hPa61.00 %7.40 °C 
18:15:0015.00 °C1021.30 hPa60.00 %7.30 °C 
18:00:0015.20 °C1021.50 hPa60.00 %7.50 °C 
17:45:0015.20 °C1021.50 hPa60.00 %7.50 °C 
17:30:0015.10 °C1021.60 hPa60.00 %7.40 °C 
17:15:0015.10 °C1021.60 hPa59.00 %7.20 °C 
17:00:0015.60 °C1021.90 hPa60.00 %7.90 °C 
16:45:0015.70 °C1021.90 hPa59.00 %7.70 °C 
16:30:0016.00 °C1022.00 hPa59.00 %8.00 °C 
16:15:0016.20 °C1022.00 hPa57.00 %3.24 km/hNW16.20 °C7.70 °C 
16:00:0016.50 °C1021.90 hPa57.00 %8.00 °C 
15:45:0015.60 °C1021.90 hPa60.00 %7.90 °C 
15:30:0015.10 °C1022.10 hPa60.00 %12.24 km/hNW14.50 °C7.40 °C 
15:15:0015.10 °C1022.10 hPa61.00 %7.60 °C 
15:00:0015.40 °C1022.10 hPa59.00 %7.40 °C 
14:45:0015.80 °C1022.10 hPa58.00 %1.80 km/hNNW15.80 °C7.60 °C 
14:30:0015.90 °C1022.10 hPa56.00 %2.52 km/hW15.90 °C7.10 °C 
14:15:0016.90 °C1022.00 hPa55.00 %2.52 km/hWNW16.90 °C7.80 °C 
14:00:0016.20 °C1022.30 hPa59.00 %11.88 km/hWNW15.80 °C8.20 °C 
13:45:0015.30 °C1022.30 hPa62.00 %8.10 °C 
13:30:0015.00 °C1022.30 hPa62.00 %3.24 km/hSW15.00 °C7.80 °C 
13:15:0014.60 °C1022.40 hPa64.00 %7.20 km/hWNW14.50 °C7.90 °C 
13:00:0014.40 °C1022.30 hPa63.00 %7.50 °C 
12:45:0014.50 °C1022.20 hPa62.00 %16.56 km/hWNW13.30 °C7.30 °C 
12:30:0015.10 °C1022.40 hPa63.00 %5.04 km/hWNW15.50 °C8.10 °C 
12:15:0014.60 °C1022.40 hPa66.00 %4.32 km/hWSW14.60 °C8.30 °C 
12:00:0013.80 °C1022.60 hPa69.00 %8.20 °C 
11:45:0013.30 °C1022.50 hPa70.00 %3.60 km/hW13.30 °C8.00 °C 
11:30:0012.90 °C1022.90 hPa71.00 %4.68 km/hW12.90 °C7.80 °C 
11:15:0012.80 °C1022.70 hPa72.00 %7.90 °C 
11:00:0012.80 °C1022.80 hPa73.00 %2.16 km/hWNW12.80 °C8.10 °C 
10:45:0012.60 °C1022.60 hPa74.00 %5.40 km/hWNW12.60 °C8.10 °C 
10:30:0011.60 °C1022.70 hPa78.00 %7.90 °C 
10:15:0010.90 °C1022.50 hPa79.00 %6.84 km/hWSW10.30 °C7.40 °C 
10:00:0010.60 °C1022.40 hPa79.00 %0.36 km/hW10.60 °C7.10 °C 
09:45:0010.40 °C1022.50 hPa80.00 %7.20 km/hWNW9.60 °C7.10 °C 
09:30:0010.00 °C1022.30 hPa81.00 %6.90 °C 
09:15:009.60 °C1022.20 hPa82.00 %6.70 °C 
09:00:009.40 °C1022.00 hPa83.00 %6.70 °C 
08:45:009.30 °C1022.00 hPa83.00 %6.60 °C 
08:30:009.10 °C1021.80 hPa84.00 %0.72 km/hWSW9.10 °C6.50 °C 
08:15:008.70 °C1022.00 hPa85.00 %6.30 °C 
08:00:008.40 °C1022.10 hPa85.00 %6.00 °C 
07:45:008.10 °C1022.00 hPa85.00 %5.70 °C 
07:30:007.90 °C1021.90 hPa84.00 %5.40 °C 
07:15:007.90 °C1021.60 hPa84.00 %5.40 °C 
07:00:007.90 °C1021.60 hPa84.00 %5.40 °C 
06:45:007.80 °C1021.80 hPa84.00 %5.30 °C 
06:30:007.80 °C1021.80 hPa84.00 %5.30 °C 
06:15:007.80 °C1021.80 hPa83.00 %5.10 °C 
06:00:007.80 °C1021.70 hPa83.00 %5.10 °C 
05:45:007.80 °C1021.60 hPa83.00 %5.10 °C 
05:30:007.80 °C1021.60 hPa83.00 %5.10 °C 
05:15:007.90 °C1021.50 hPa83.00 %5.20 °C 
05:00:007.90 °C1021.40 hPa83.00 %5.20 °C 
04:45:008.00 °C1021.30 hPa83.00 %5.30 °C 
04:30:008.10 °C1021.40 hPa83.00 %5.40 °C 
04:15:008.20 °C1021.40 hPa82.00 %5.30 °C 
04:00:008.30 °C1021.40 hPa82.00 %5.40 °C 
03:45:008.30 °C1021.20 hPa81.00 %5.20 °C 
03:30:008.40 °C1021.30 hPa81.00 %5.30 °C 
03:15:008.40 °C1021.40 hPa81.00 %5.30 °C 
03:00:008.50 °C1021.40 hPa80.00 %5.30 °C 
02:45:008.60 °C1021.40 hPa80.00 %5.40 °C 
02:30:008.70 °C1021.40 hPa80.00 %3.24 km/hWNW8.70 °C5.40 °C 
02:15:008.80 °C1021.40 hPa80.00 %5.50 °C 
02:00:008.90 °C1021.40 hPa80.00 %5.60 °C 
01:45:009.00 °C1021.20 hPa79.00 %5.60 °C 
01:30:009.10 °C1021.20 hPa79.00 %5.70 °C 
01:15:009.10 °C1021.10 hPa79.00 %5.70 °C 
01:00:009.20 °C1021.00 hPa78.00 %5.60 °C 
00:45:009.20 °C1020.90 hPa78.00 %5.60 °C 
00:30:009.20 °C1020.90 hPa78.00 %2.52 km/hNW9.20 °C5.60 °C 
00:15:009.30 °C1021.00 hPa77.00 %5.50 °C 
00:00:009.40 °C1020.80 hPa77.00 %5.60 °C 

Permanenter Link zu dieser Seite: Wetter im Erzgebirge am 30.03.2017
Performance-Info: Die Erstellung der Seite / Statistik(en) / Tabelle(n) erforderte 5 Datenbankserver-Abfrage(n) und dauerte 104 Millisekunden. (Dieser Messwert ist von der Gesamt-Auslastung des Servers abhängig.)
Erzgebirge - Wetter | Erzgebirge - Wetter (Mobilgeräte) | Komplette Klimadatenbank